»·PEaware :: N5491J KSMO-KLGB

N5491J :: KSMO-KLGB

FLIGHT INFORMATION

Flight Status: Arrived
Operator: Privately registered:
United States
More flights under this callsign
Pilot: Aero Safety Training (369)
Aircraft: CESSNA 172 SKYHAWK
(C172)
More flights by this aircraft type
Origin: KSMO Santa Monica Mun
United States
Destination: KLGB Long Beach
United States
More flights between these airports :: More routes between these airports
Route: SMO SMO125 V64 SLI
File this flight plan on PilotEdge
Remarks: imc conditions.
Altitude:
(Current/Filed)
40ft
Speed:
(Current/Filed)
105kts
Departed: 23-Nov-15 09:20 AM
Arrived: 23-Nov-15 09:53 AM
Distance/Time
Traveled:
19nm/0:32
Distance/Time
To Go:
Arrived

Flight Plot

Page will automatically refresh every two minutes.


Map Options




Map Legend


Flown Route
Filed Route
Departure Airport
Arrival Airport
Navaid (VOR, NDB)
Fix

Horizontal Profiles

Position Reports

Time Latitude Longitude Heading Altitude Ground
Speed
23-Nov-15 08:58 34.016953 -118.452767 212 178ft 0kts
23-Nov-15 08:59 34.016953 -118.452767 212 178ft 0kts
23-Nov-15 09:00 34.016953 -118.452768 212 178ft 0kts
23-Nov-15 09:03 34.016953 -118.452768 212 178ft 0kts
23-Nov-15 09:04 34.016953 -118.452768 212 178ft 0kts
23-Nov-15 09:05 34.016953 -118.452768 212 178ft 0kts
23-Nov-15 09:06 34.016953 -118.452768 212 178ft 0kts
23-Nov-15 09:07 34.016953 -118.452768 212 178ft 0kts
23-Nov-15 09:08 34.016953 -118.452768 212 178ft 0kts
23-Nov-15 09:09 34.016953 -118.452768 212 178ft 0kts
23-Nov-15 09:10 34.016953 -118.452768 212 178ft 0kts
23-Nov-15 09:11 34.016953 -118.452768 212 178ft 0kts
23-Nov-15 09:12 34.015651 -118.452461 39 178ft 40kts
23-Nov-15 09:13 34.020772 -118.446145 152 178ft 0kts
23-Nov-15 09:14 34.020771 -118.446145 152 178ft 0kts
23-Nov-15 09:15 34.020770 -118.446144 152 178ft 0kts
23-Nov-15 09:16 34.020769 -118.446143 152 178ft 0kts
23-Nov-15 09:17 34.011534 -118.456437 225 521ft 79kts
23-Nov-15 09:18 34.004962 -118.482881 261 1636ft 83kts
23-Nov-15 09:19 34.000889 -118.510374 259 2704ft 80kts
23-Nov-15 09:20 33.997778 -118.537512 261 3590ft 79kts
23-Nov-15 09:21 33.994126 -118.566903 263 4071ft 106kts
23-Nov-15 09:22 33.990313 -118.605794 262 3999ft 119kts
23-Nov-15 09:23 34.006510 -118.618047 72 4004ft 115kts
23-Nov-15 09:24 34.010281 -118.579278 87 4000ft 117kts
23-Nov-15 09:25 34.010568 -118.539835 90 4000ft 117kts
23-Nov-15 09:26 34.010473 -118.500327 90 4000ft 117kts
23-Nov-15 09:27 34.010327 -118.460711 91 3999ft 117kts
23-Nov-15 09:28 33.989640 -118.431525 137 4000ft 117kts
23-Nov-15 09:29 33.965388 -118.404779 137 3999ft 117kts
23-Nov-15 09:30 33.941176 -118.378076 137 3999ft 117kts
23-Nov-15 09:31 33.916996 -118.351405 137 4000ft 117kts
23-Nov-15 09:32 33.892744 -118.324653 137 4000ft 117kts
23-Nov-15 09:33 33.868498 -118.297907 137 4000ft 117kts
23-Nov-15 09:34 33.844338 -118.271255 137 4000ft 117kts
23-Nov-15 09:35 33.820140 -118.244559 137 4000ft 117kts
23-Nov-15 09:36 33.795976 -118.217898 137 4000ft 117kts
23-Nov-15 09:37 33.771765 -118.191184 137 4000ft 117kts
23-Nov-15 09:38 33.747567 -118.164482 137 4000ft 118kts
23-Nov-15 09:39 33.727342 -118.142162 137 4000ft 118kts
23-Nov-15 09:40 33.699690 -118.111643 137 3465ft 106kts
23-Nov-15 09:41 33.679477 -118.089335 137 3024ft 107kts
23-Nov-15 09:42 33.659815 -118.066468 118 2995ft 120kts
23-Nov-15 09:43 33.674612 -118.040111 42 2394ft 97kts
23-Nov-15 09:44 33.699008 -118.026483 343 2027ft 115kts
23-Nov-15 09:45 33.727027 -118.041723 318 2010ft 112kts
23-Nov-15 09:46 33.747435 -118.065835 313 1841ft 97kts
23-Nov-15 09:47 33.766620 -118.089577 314 1346ft 99kts
23-Nov-15 09:48 33.785522 -118.112335 314 783ft 90kts
23-Nov-15 09:49 33.803415 -118.133930 315 265ft 82kts
23-Nov-15 09:50 33.813332 -118.145952 314 63ft 20kts
23-Nov-15 09:51 33.815024 -118.150329 268 63ft 0kts
23-Nov-15 09:52 33.815023 -118.150330 268 63ft 0kts
23-Nov-15 09:53 33.818953 -118.153836 108 63ft 10kts
23-Nov-15 09:54 33.818836 -118.146569 94 63ft 15kts

Navigation Log

Ident Type
1. KSMO Airport
2. SMO Navaid
3. SLI Navaid
4. KLGB Airport